Terminal Aerodrome Forecast
Issued by NWS

Home | Current Version | Previous Version | Text Only | Print | Product List | Glossary On
Versions: 1 2 3 4 5 6 7 8 9 10 11 12 13 14 15 16
000
FTUS45 KRIW 240014 CCA
TAFCPR
TAF COR
KCPR 240014Z 2400/2424 25014G23KT P6SM VCSH SCT090 BKN120
     FM240200 28007KT P6SM VCSH BKN090
     FM240800 VRB06KT P6SM SCT100
     FM241600 15009KT P6SM SCT100=

USA.gov is the U.S. government's official web portal to all federal, state and local government web resources and services.